sensor_id;sensor_type;location;lat;lon;timestamp;pressure;altitude;pressure_sealevel;temperature;humidity
19759;BME280;10038;42.662;23.278;2022-09-09T00:02:05;72653.69;;;17.83;91.63
19759;BME280;10038;42.662;23.278;2022-09-09T00:04:40;72660.69;;;17.89;91.63
19759;BME280;10038;42.662;23.278;2022-09-09T00:07:14;72652.56;;;17.82;91.63
19759;BME280;10038;42.662;23.278;2022-09-09T00:09:47;72558.00;;;17.02;92.64
19759;BME280;10038;42.662;23.278;2022-09-09T00:12:18;72634.69;;;17.68;92.36
19759;BME280;10038;42.662;23.278;2022-09-09T00:14:52;72578.88;;;17.20;92.79
19759;BME280;10038;42.662;23.278;2022-09-09T00:17:31;72632.78;;;17.64;92.70
19759;BME280;10038;42.662;23.278;2022-09-09T00:20:09;72618.66;;;17.50;92.93
19759;BME280;10038;42.662;23.278;2022-09-09T00:22:41;72621.16;;;17.54;92.81
19759;BME280;10038;42.662;23.278;2022-09-09T00:25:16;72607.63;;;17.40;93.96
19759;BME280;10038;42.662;23.278;2022-09-09T00:27:48;72592.84;;;17.32;93.50
19759;BME280;10038;42.662;23.278;2022-09-09T00:30:17;72593.66;;;17.28;94.13
19759;BME280;10038;42.662;23.278;2022-09-09T00:32:48;72545.47;;;16.86;93.93
19759;BME280;10038;42.662;23.278;2022-09-09T00:35:21;72588.88;;;17.22;94.52
19759;BME280;10038;42.662;23.278;2022-09-09T00:37:52;72591.09;;;17.31;94.10
19759;BME280;10038;42.662;23.278;2022-09-09T00:40:25;72554.94;;;16.97;94.25
19759;BME280;10038;42.662;23.278;2022-09-09T00:43:03;72582.06;;;17.18;94.22
19759;BME280;10038;42.662;23.278;2022-09-09T00:45:52;72523.16;;;16.72;94.59
19759;BME280;10038;42.662;23.278;2022-09-09T00:48:31;72575.09;;;17.12;94.64
19759;BME280;10038;42.662;23.278;2022-09-09T00:51:09;72594.41;;;17.31;93.58
19759;BME280;10038;42.662;23.278;2022-09-09T00:54:10;72596.56;;;17.31;93.39
19759;BME280;10038;42.662;23.278;2022-09-09T00:56:47;72578.72;;;17.18;94.35
19759;BME280;10038;42.662;23.278;2022-09-09T00:59:24;72586.13;;;17.22;93.88
19759;BME280;10038;42.662;23.278;2022-09-09T01:01:54;72570.44;;;17.08;93.84
19759;BME280;10038;42.662;23.278;2022-09-09T01:04:28;72564.81;;;17.05;94.38
19759;BME280;10038;42.662;23.278;2022-09-09T01:07:02;72568.53;;;17.04;94.37
19759;BME280;10038;42.662;23.278;2022-09-09T01:09:37;72568.53;;;17.04;94.46
19759;BME280;10038;42.662;23.278;2022-09-09T01:12:12;72568.44;;;17.11;94.36
19759;BME280;10038;42.662;23.278;2022-09-09T01:14:44;72564.63;;;17.03;93.78
19759;BME280;10038;42.662;23.278;2022-09-09T01:17:17;72566.53;;;17.07;94.04
19759;BME280;10038;42.662;23.278;2022-09-09T01:19:55;72563.03;;;17.04;93.65
19759;BME280;10038;42.662;23.278;2022-09-09T01:22:33;72559.56;;;17.01;93.51
19759;BME280;10038;42.662;23.278;2022-09-09T01:25:21;72564.63;;;17.03;93.35
19759;BME280;10038;42.662;23.278;2022-09-09T01:27:54;72557.06;;;16.96;94.07
19759;BME280;10038;42.662;23.278;2022-09-09T01:30:22;72540.56;;;16.87;94.83
19759;BME280;10038;42.662;23.278;2022-09-09T01:32:52;72546.78;;;16.90;94.73
19759;BME280;10038;42.662;23.278;2022-09-09T01:35:29;72517.50;;;16.69;95.42
19759;BME280;10038;42.662;23.278;2022-09-09T01:37:59;72523.97;;;16.68;96.21
19759;BME280;10038;42.662;23.278;2022-09-09T01:40:26;72499.13;;;16.48;96.10
19759;BME280;10038;42.662;23.278;2022-09-09T01:42:54;72527.44;;;16.71;96.63
19759;BME280;10038;42.662;23.278;2022-09-09T01:45:22;72530.94;;;16.74;96.58
19759;BME280;10038;42.662;23.278;2022-09-09T01:47:51;72525.72;;;16.69;96.10
19759;BME280;10038;42.662;23.278;2022-09-09T01:50:19;72527.88;;;16.69;96.35
19759;BME280;10038;42.662;23.278;2022-09-09T01:52:51;72534.16;;;16.81;95.78
19759;BME280;10038;42.662;23.278;2022-09-09T01:55:22;72540.81;;;16.82;95.74
19759;BME280;10038;42.662;23.278;2022-09-09T01:58:04;72542.91;;;16.89;95.16
19759;BME280;10038;42.662;23.278;2022-09-09T02:00:36;72532.53;;;16.73;94.73
19759;BME280;10038;42.662;23.278;2022-09-09T02:03:13;72539.09;;;16.81;95.21
19759;BME280;10038;42.662;23.278;2022-09-09T02:05:47;72549.53;;;16.90;94.78
19759;BME280;10038;42.662;23.278;2022-09-09T02:08:19;72536.91;;;16.81;94.62
19759;BME280;10038;42.662;23.278;2022-09-09T02:10:53;72536.91;;;16.81;94.57
19759;BME280;10038;42.662;23.278;2022-09-09T02:13:23;72546.19;;;16.89;94.63
19759;BME280;10038;42.662;23.278;2022-09-09T02:15:52;72498.97;;;16.46;95.16
19759;BME280;10038;42.662;23.278;2022-09-09T02:18:24;72495.31;;;16.40;97.15
19759;BME280;10038;42.662;23.278;2022-09-09T02:20:54;72496.81;;;16.46;96.82
19759;BME280;10038;42.662;23.278;2022-09-09T02:23:23;72486.38;;;16.37;97.40
19759;BME280;10038;42.662;23.278;2022-09-09T02:25:51;72514.69;;;16.60;96.42
19759;BME280;10038;42.662;23.278;2022-09-09T02:28:22;72516.00;;;16.63;95.84
19759;BME280;10038;42.662;23.278;2022-09-09T02:30:51;72522.81;;;16.67;95.19
19759;BME280;10038;42.662;23.278;2022-09-09T02:33:22;72520.91;;;16.63;95.79
19759;BME280;10038;42.662;23.278;2022-09-09T02:35:51;72482.56;;;16.29;97.36
19759;BME280;10038;42.662;23.278;2022-09-09T02:38:21;72451.97;;;16.05;98.56
19759;BME280;10038;42.662;23.278;2022-09-09T02:40:50;72445.41;;;15.97;99.64
19759;BME280;10038;42.662;23.278;2022-09-09T02:43:17;72467.03;;;16.18;98.59
19759;BME280;10038;42.662;23.278;2022-09-09T02:45:53;72453.28;;;16.09;99.29
19759;BME280;10038;42.662;23.278;2022-09-09T02:48:28;72457.34;;;16.12;99.17
19759;BME280;10038;42.662;23.278;2022-09-09T02:51:03;72455.28;;;16.06;100.00
19759;BME280;10038;42.662;23.278;2022-09-09T02:53:37;72460.81;;;16.15;99.34
19759;BME280;10038;42.662;23.278;2022-09-09T02:56:09;72460.81;;;16.15;99.19
19759;BME280;10038;42.662;23.278;2022-09-09T02:58:40;72477.91;;;16.25;99.15
19759;BME280;10038;42.662;23.278;2022-09-09T03:01:09;72485.06;;;16.34;97.63
19759;BME280;10038;42.662;23.278;2022-09-09T03:03:36;72505.38;;;16.51;97.15
19759;BME280;10038;42.662;23.278;2022-09-09T03:06:03;72500.31;;;16.49;96.57
19759;BME280;10038;42.662;23.278;2022-09-09T03:08:31;72495.66;;;16.45;97.13
19759;BME280;10038;42.662;23.278;2022-09-09T03:10:58;72474.44;;;16.22;98.15
19759;BME280;10038;42.662;23.278;2022-09-09T03:13:26;72479.81;;;16.29;97.88
19759;BME280;10038;42.662;23.278;2022-09-09T03:15:53;72491.44;;;16.39;97.55
19759;BME280;10038;42.662;23.278;2022-09-09T03:18:21;72478.09;;;16.28;97.50
19759;BME280;10038;42.662;23.278;2022-09-09T03:20:48;72485.22;;;16.36;96.80
19759;BME280;10038;42.662;23.278;2022-09-09T03:23:16;72495.09;;;16.45;96.88
19759;BME280;10038;42.662;23.278;2022-09-09T03:25:46;72474.75;;;16.27;97.72
19759;BME280;10038;42.662;23.278;2022-09-09T03:28:14;72470.94;;;16.19;98.08
19759;BME280;10038;42.662;23.278;2022-09-09T03:30:41;72471.28;;;16.24;97.35
19759;BME280;10038;42.662;23.278;2022-09-09T03:33:07;72463.97;;;16.13;97.75
19759;BME280;10038;42.662;23.278;2022-09-09T03:35:36;72466.66;;;16.20;97.89
19759;BME280;10038;42.662;23.278;2022-09-09T03:38:02;72465.16;;;16.14;98.41
19759;BME280;10038;42.662;23.278;2022-09-09T03:40:29;72477.91;;;16.25;97.47
19759;BME280;10038;42.662;23.278;2022-09-09T03:42:56;72463.97;;;16.13;97.82
19759;BME280;10038;42.662;23.278;2022-09-09T03:45:23;72468.63;;;16.17;97.88
19759;BME280;10038;42.662;23.278;2022-09-09T03:47:49;72463.97;;;16.13;97.77
19759;BME280;10038;42.662;23.278;2022-09-09T03:50:16;72455.59;;;16.11;98.18
19759;BME280;10038;42.662;23.278;2022-09-09T03:52:45;72459.69;;;16.14;97.82
19759;BME280;10038;42.662;23.278;2022-09-09T03:55:14;72478.25;;;16.30;97.17
19759;BME280;10038;42.662;23.278;2022-09-09T03:57:40;72475.94;;;16.28;97.15
19759;BME280;10038;42.662;23.278;2022-09-09T04:00:08;72472.13;;;16.20;97.79
19759;BME280;10038;42.662;23.278;2022-09-09T04:02:35;72469.53;;;16.23;97.79
19759;BME280;10038;42.662;23.278;2022-09-09T04:05:02;72466.06;;;16.20;98.26
19759;BME280;10038;42.662;23.278;2022-09-09T04:07:29;72467.63;;;16.19;98.32
19759;BME280;10038;42.662;23.278;2022-09-09T04:09:57;72434.56;;;15.90;98.13
19759;BME280;10038;42.662;23.278;2022-09-09T04:12:23;72465.31;;;16.17;98.22
19759;BME280;10038;42.662;23.278;2022-09-09T04:14:50;72440.19;;;15.92;98.41
19759;BME280;10038;42.662;23.278;2022-09-09T04:17:17;72481.16;;;16.33;97.74
19759;BME280;10038;42.662;23.278;2022-09-09T04:19:44;72497.09;;;16.42;96.99
19759;BME280;10038;42.662;23.278;2022-09-09T04:22:11;72496.50;;;16.41;97.52
19759;BME280;10038;42.662;23.278;2022-09-09T04:24:37;72497.66;;;16.42;97.49
19759;BME280;10038;42.662;23.278;2022-09-09T04:27:05;72499.13;;;16.48;96.77
19759;BME280;10038;42.662;23.278;2022-09-09T04:29:32;72504.22;;;16.50;97.23
19759;BME280;10038;42.662;23.278;2022-09-09T04:31:59;72515.41;;;16.63;96.31
19759;BME280;10038;42.662;23.278;2022-09-09T04:34:26;72550.09;;;16.90;94.86
19759;BME280;10038;42.662;23.278;2022-09-09T04:36:54;72555.50;;;16.97;94.47
19759;BME280;10038;42.662;23.278;2022-09-09T04:39:22;72538.25;;;16.85;95.16
19759;BME280;10038;42.662;23.278;2022-09-09T04:41:49;72545.47;;;16.86;94.99
19759;BME280;10038;42.662;23.278;2022-09-09T04:44:17;72543.28;;;16.87;94.87
19759;BME280;10038;42.662;23.278;2022-09-09T04:46:44;72538.66;;;16.83;95.76
19759;BME280;10038;42.662;23.278;2022-09-09T04:49:10;72527.63;;;16.73;96.51
19759;BME280;10038;42.662;23.278;2022-09-09T04:51:37;72534.16;;;16.81;95.87
19759;BME280;10038;42.662;23.278;2022-09-09T04:54:04;72551.00;;;16.96;96.01
19759;BME280;10038;42.662;23.278;2022-09-09T04:56:31;72561.31;;;17.02;95.79
19759;BME280;10038;42.662;23.278;2022-09-09T04:58:57;72573.19;;;17.08;94.92
19759;BME280;10038;42.662;23.278;2022-09-09T05:01:26;72579.63;;;17.23;94.55
19759;BME280;10038;42.662;23.278;2022-09-09T05:03:52;72594.19;;;17.36;94.43
19759;BME280;10038;42.662;23.278;2022-09-09T05:06:20;72614.59;;;17.46;93.54
19759;BME280;10038;42.662;23.278;2022-09-09T05:08:48;72608.09;;;17.48;92.66
19759;BME280;10038;42.662;23.278;2022-09-09T05:11:16;72618.09;;;17.49;92.02
19759;BME280;10038;42.662;23.278;2022-09-09T05:13:43;72620.75;;;17.56;91.74
19759;BME280;10038;42.662;23.278;2022-09-09T05:16:10;72643.84;;;17.74;90.36
19759;BME280;10038;42.662;23.278;2022-09-09T05:18:39;72652.88;;;17.87;90.59
19759;BME280;10038;42.662;23.278;2022-09-09T05:21:08;72653.88;;;17.85;89.32
19759;BME280;10038;42.662;23.278;2022-09-09T05:23:35;72681.63;;;18.07;89.18
19759;BME280;10038;42.662;23.278;2022-09-09T05:26:03;72681.63;;;18.07;88.24
19759;BME280;10038;42.662;23.278;2022-09-09T05:28:30;72696.56;;;18.17;87.35
19759;BME280;10038;42.662;23.278;2022-09-09T05:30:58;72706.03;;;18.28;87.20
19759;BME280;10038;42.662;23.278;2022-09-09T05:33:26;72720.16;;;18.43;87.52
19759;BME280;10038;42.662;23.278;2022-09-09T05:35:58;72736.28;;;18.54;86.62
19759;BME280;10038;42.662;23.278;2022-09-09T05:38:27;72743.41;;;18.63;85.48
19759;BME280;10038;42.662;23.278;2022-09-09T05:40:54;72754.31;;;18.70;84.75
19759;BME280;10038;42.662;23.278;2022-09-09T05:43:22;72758.44;;;18.83;84.85
19759;BME280;10038;42.662;23.278;2022-09-09T05:45:59;72763.94;;;18.83;84.63
19759;BME280;10038;42.662;23.278;2022-09-09T05:48:28;72800.84;;;19.10;83.91
19759;BME280;10038;42.662;23.278;2022-09-09T05:50:55;72818.03;;;19.30;83.01
19759;BME280;10038;42.662;23.278;2022-09-09T05:53:23;72837.53;;;19.42;82.73
19759;BME280;10038;42.662;23.278;2022-09-09T05:55:50;72841.34;;;19.50;81.22
19759;BME280;10038;42.662;23.278;2022-09-09T05:58:17;72854.16;;;19.61;80.37
19759;BME280;10038;42.662;23.278;2022-09-09T06:00:44;72877.69;;;19.77;80.05
19759;BME280;10038;42.662;23.278;2022-09-09T06:03:11;72902.28;;;20.00;79.67
19759;BME280;10038;42.662;23.278;2022-09-09T06:05:38;72906.84;;;20.12;79.20
19759;BME280;10038;42.662;23.278;2022-09-09T06:08:04;72935.66;;;20.32;77.84
19759;BME280;10038;42.662;23.278;2022-09-09T06:10:34;73135.81;;;22.00;71.82
19759;BME280;10038;42.662;23.278;2022-09-09T06:13:01;73364.28;;;24.02;64.31
19759;BME280;10038;42.662;23.278;2022-09-09T06:15:28;73494.84;;;25.20;58.15
19759;BME280;10038;42.662;23.278;2022-09-09T06:17:55;73667.91;;;26.69;54.68
19759;BME280;10038;42.662;23.278;2022-09-09T06:20:22;73781.59;;;27.70;50.87
19759;BME280;10038;42.662;23.278;2022-09-09T06:22:50;73916.28;;;28.86;47.47
19759;BME280;10038;42.662;23.278;2022-09-09T06:25:16;74053.88;;;30.02;44.51
19759;BME280;10038;42.662;23.278;2022-09-09T06:27:48;74170.84;;;31.07;41.87
19759;BME280;10038;42.662;23.278;2022-09-09T06:30:15;74197.09;;;31.27;40.61
19759;BME280;10038;42.662;23.278;2022-09-09T06:32:42;74281.78;;;32.02;38.24
19759;BME280;10038;42.662;23.278;2022-09-09T06:35:09;74314.50;;;32.28;37.95
19759;BME280;10038;42.662;23.278;2022-09-09T06:37:36;74326.97;;;32.41;37.83
19759;BME280;10038;42.662;23.278;2022-09-09T06:40:03;74439.72;;;33.38;36.26
19759;BME280;10038;42.662;23.278;2022-09-09T06:42:30;74497.28;;;33.88;34.44
19759;BME280;10038;42.662;23.278;2022-09-09T06:44:59;74558.31;;;34.37;33.88
19759;BME280;10038;42.662;23.278;2022-09-09T06:47:27;74518.00;;;34.08;34.57
19759;BME280;10038;42.662;23.278;2022-09-09T06:49:55;74450.75;;;33.45;34.39
19759;BME280;10038;42.662;23.278;2022-09-09T06:52:21;74562.66;;;34.46;34.10
19759;BME280;10038;42.662;23.278;2022-09-09T06:54:50;74740.75;;;35.96;31.41
19759;BME280;10038;42.662;23.278;2022-09-09T06:57:16;74788.41;;;36.37;30.54
19759;BME280;10038;42.662;23.278;2022-09-09T06:59:43;74838.47;;;36.80;29.94
19759;BME280;10038;42.662;23.278;2022-09-09T07:02:11;74656.06;;;35.24;31.39
19759;BME280;10038;42.662;23.278;2022-09-09T07:04:38;74696.75;;;35.61;31.72
19759;BME280;10038;42.662;23.278;2022-09-09T07:07:04;74686.63;;;35.50;31.67
19759;BME280;10038;42.662;23.278;2022-09-09T07:09:32;74707.34;;;35.70;30.63
19759;BME280;10038;42.662;23.278;2022-09-09T07:11:59;74816.69;;;36.61;30.02
19759;BME280;10038;42.662;23.278;2022-09-09T07:14:25;74779.59;;;36.30;29.63
19759;BME280;10038;42.662;23.278;2022-09-09T07:16:52;74658.41;;;35.26;31.28
19759;BME280;10038;42.662;23.278;2022-09-09T07:19:21;74719.09;;;35.80;30.63
19759;BME280;10038;42.662;23.278;2022-09-09T07:21:47;74639.59;;;35.10;31.36
19759;BME280;10038;42.662;23.278;2022-09-09T07:24:14;74791.94;;;36.40;29.92
19759;BME280;10038;42.662;23.278;2022-09-09T07:26:41;74743.13;;;35.98;30.31
19759;BME280;10038;42.662;23.278;2022-09-09T07:29:09;74897.91;;;37.31;29.60
19759;BME280;10038;42.662;23.278;2022-09-09T07:31:39;74898.72;;;37.37;28.76
19759;BME280;10038;42.662;23.278;2022-09-09T07:34:06;74539.63;;;34.24;32.77
19759;BME280;10038;42.662;23.278;2022-09-09T07:36:36;74563.13;;;34.44;32.15
19759;BME280;10038;42.662;23.278;2022-09-09T07:39:05;74745.00;;;36.02;29.86
19759;BME280;10038;42.662;23.278;2022-09-09T07:41:33;74796.78;;;36.47;29.73
19759;BME280;10038;42.662;23.278;2022-09-09T07:44:04;74969.91;;;37.95;27.87
19759;BME280;10038;42.662;23.278;2022-09-09T07:46:31;75035.88;;;38.52;26.68
19759;BME280;10038;42.662;23.278;2022-09-09T07:48:59;75024.09;;;38.42;26.70
19759;BME280;10038;42.662;23.278;2022-09-09T07:51:27;75062.97;;;38.75;26.60
19759;BME280;10038;42.662;23.278;2022-09-09T07:53:58;75057.09;;;38.70;26.64
19759;BME280;10038;42.662;23.278;2022-09-09T07:56:28;74945.72;;;37.74;27.51
19759;BME280;10038;42.662;23.278;2022-09-09T07:58:56;74953.88;;;37.79;27.81
19759;BME280;10038;42.662;23.278;2022-09-09T08:01:25;74904.97;;;37.37;29.10
19759;BME280;10038;42.662;23.278;2022-09-09T08:03:54;74860.84;;;36.99;29.63
19759;BME280;10038;42.662;23.278;2022-09-09T08:06:24;75011.84;;;38.33;27.96
19759;BME280;10038;42.662;23.278;2022-09-09T08:08:52;75095.50;;;39.05;26.51
19759;BME280;10038;42.662;23.278;2022-09-09T08:11:25;75064.63;;;38.74;27.46
19759;BME280;10038;42.662;23.278;2022-09-09T08:13:53;74968.72;;;37.94;27.63
19759;BME280;10038;42.662;23.278;2022-09-09T08:16:21;75006.88;;;38.24;27.90
19759;BME280;10038;42.662;23.278;2022-09-09T08:18:48;75060.63;;;38.73;27.31
19759;BME280;10038;42.662;23.278;2022-09-09T08:21:18;74980.50;;;38.04;27.65
19759;BME280;10038;42.662;23.278;2022-09-09T08:23:46;74904.28;;;37.34;28.81
19759;BME280;10038;42.662;23.278;2022-09-09T08:26:15;74790.19;;;36.39;30.00
19759;BME280;10038;42.662;23.278;2022-09-09T08:28:44;74541.97;;;34.26;32.44
19759;BME280;10038;42.662;23.278;2022-09-09T08:31:12;74378.06;;;32.85;35.83
19759;BME280;10038;42.662;23.278;2022-09-09T08:33:40;74338.69;;;32.51;36.47
19759;BME280;10038;42.662;23.278;2022-09-09T08:36:10;74287.50;;;32.05;35.56
19759;BME280;10038;42.662;23.278;2022-09-09T08:38:37;74182.59;;;31.17;37.58
19759;BME280;10038;42.662;23.278;2022-09-09T08:41:26;74127.19;;;30.65;39.31
19759;BME280;10038;42.662;23.278;2022-09-09T08:44:04;74084.47;;;30.30;40.52
19759;BME280;10038;42.662;23.278;2022-09-09T08:46:40;74262.81;;;31.84;38.31
19759;BME280;10038;42.662;23.278;2022-09-09T08:49:19;74244.78;;;31.71;37.67
19759;BME280;10038;42.662;23.278;2022-09-09T08:51:54;74276.31;;;31.95;37.17
19759;BME280;10038;42.662;23.278;2022-09-09T08:54:23;74302.16;;;32.18;36.62
19759;BME280;10038;42.662;23.278;2022-09-09T08:56:50;74287.94;;;32.03;36.71
19759;BME280;10038;42.662;23.278;2022-09-09T08:59:18;74299.84;;;32.16;37.57
19759;BME280;10038;42.662;23.278;2022-09-09T09:02:00;74308.63;;;32.23;37.35
19759;BME280;10038;42.662;23.278;2022-09-09T09:04:38;74464.88;;;33.57;35.98
19759;BME280;10038;42.662;23.278;2022-09-09T09:07:16;74496.13;;;33.87;33.97
19759;BME280;10038;42.662;23.278;2022-09-09T09:09:51;74526.09;;;34.12;32.80
19759;BME280;10038;42.662;23.278;2022-09-09T09:12:21;74487.19;;;33.76;34.25
19759;BME280;10038;42.662;23.278;2022-09-09T09:14:51;74274.56;;;31.94;35.77
19759;BME280;10038;42.662;23.278;2022-09-09T09:17:19;74232.78;;;31.56;37.65
19759;BME280;10038;42.662;23.278;2022-09-09T09:19:47;74140.06;;;30.76;39.47
19759;BME280;10038;42.662;23.278;2022-09-09T09:22:18;74105.03;;;30.48;40.92
19759;BME280;10038;42.662;23.278;2022-09-09T09:24:52;74112.63;;;30.55;40.00
19759;BME280;10038;42.662;23.278;2022-09-09T09:27:28;74049.31;;;30.00;39.93
19759;BME280;10038;42.662;23.278;2022-09-09T09:29:59;74083.31;;;30.29;40.71
19759;BME280;10038;42.662;23.278;2022-09-09T09:32:31;74034.06;;;29.87;39.90
19759;BME280;10038;42.662;23.278;2022-09-09T09:35:02;74186.09;;;31.20;38.33
19759;BME280;10038;42.662;23.278;2022-09-09T09:37:36;74460.41;;;33.58;35.21
19759;BME280;10038;42.662;23.278;2022-09-09T09:40:09;74587.13;;;34.62;35.31
19759;BME280;10038;42.662;23.278;2022-09-09T09:42:37;74550.22;;;34.33;32.65
19759;BME280;10038;42.662;23.278;2022-09-09T09:45:16;74544.34;;;34.28;32.98
19759;BME280;10038;42.662;23.278;2022-09-09T09:47:44;74416.13;;;33.15;35.24
19759;BME280;10038;42.662;23.278;2022-09-09T09:50:19;74357.97;;;32.65;35.25
19759;BME280;10038;42.662;23.278;2022-09-09T09:52:54;74245.34;;;31.71;37.00
19759;BME280;10038;42.662;23.278;2022-09-09T09:55:23;74203.69;;;31.35;37.67
19759;BME280;10038;42.662;23.278;2022-09-09T09:57:50;74150.19;;;30.87;38.25
19759;BME280;10038;42.662;23.278;2022-09-09T10:00:21;74032.47;;;29.88;39.45
19759;BME280;10038;42.662;23.278;2022-09-09T10:02:49;74023.38;;;29.75;41.38
19759;BME280;10038;42.662;23.278;2022-09-09T10:05:19;73967.25;;;29.30;41.16
19759;BME280;10038;42.662;23.278;2022-09-09T10:07:46;73903.25;;;28.72;42.53
19759;BME280;10038;42.662;23.278;2022-09-09T10:10:20;73883.31;;;28.55;43.28
19759;BME280;10038;42.662;23.278;2022-09-09T10:12:59;73865.19;;;28.39;43.04
19759;BME280;10038;42.662;23.278;2022-09-09T10:15:38;73881.00;;;28.53;45.64
19759;BME280;10038;42.662;23.278;2022-09-09T10:21:05;73864.59;;;28.39;46.95
19759;BME280;10038;42.662;23.278;2022-09-09T10:23:49;73850.25;;;28.22;47.70
19759;BME280;10038;42.662;23.278;2022-09-09T10:26:31;73877.47;;;28.50;46.82
19759;BME280;10038;42.662;23.278;2022-09-09T10:31:58;73847.59;;;28.24;47.03
19759;BME280;10038;42.662;23.278;2022-09-09T10:34:44;73831.22;;;28.10;46.91
19759;BME280;10038;42.662;23.278;2022-09-09T10:37:28;73784.38;;;27.70;47.76
19759;BME280;10038;42.662;23.278;2022-09-09T10:40:11;73820.06;;;28.00;48.29
19759;BME280;10038;42.662;23.278;2022-09-09T10:42:42;73843.66;;;28.23;48.21
19759;BME280;10038;42.662;23.278;2022-09-09T10:45:17;73848.19;;;28.25;48.66
19759;BME280;10038;42.662;23.278;2022-09-09T10:48:16;73837.66;;;28.16;47.75
19759;BME280;10038;42.662;23.278;2022-09-09T10:50:52;73848.19;;;28.25;48.11
19759;BME280;10038;42.662;23.278;2022-09-09T10:53:32;73809.09;;;27.93;48.33
19759;BME280;10038;42.662;23.278;2022-09-09T10:56:06;73802.53;;;27.85;49.31
19759;BME280;10038;42.662;23.278;2022-09-09T10:58:38;73762.72;;;27.51;49.97
19759;BME280;10038;42.662;23.278;2022-09-09T11:01:13;73681.97;;;26.81;50.97
19759;BME280;10038;42.662;23.278;2022-09-09T11:03:45;73756.88;;;27.46;50.37
19759;BME280;10038;42.662;23.278;2022-09-09T11:06:19;73770.03;;;27.52;51.32
19759;BME280;10038;42.662;23.278;2022-09-09T11:08:49;73773.84;;;27.61;50.67
19759;BME280;10038;42.662;23.278;2022-09-09T11:11:19;73789.19;;;27.76;51.41
19759;BME280;10038;42.662;23.278;2022-09-09T11:13:52;73801.34;;;27.84;50.37
19759;BME280;10038;42.662;23.278;2022-09-09T11:16:25;73861.06;;;28.36;50.01
19759;BME280;10038;42.662;23.278;2022-09-09T11:19:00;73841.75;;;28.19;50.79
19759;BME280;10038;42.662;23.278;2022-09-09T11:21:32;73837.22;;;28.18;51.00
19759;BME280;10038;42.662;23.278;2022-09-09T11:24:04;73861.97;;;28.32;50.35
19759;BME280;10038;42.662;23.278;2022-09-09T11:26:38;73888.75;;;28.62;50.27
19759;BME280;10038;42.662;23.278;2022-09-09T11:29:22;73931.97;;;28.97;49.65
19759;BME280;10038;42.662;23.278;2022-09-09T11:32:05;73899.28;;;28.71;50.42
19759;BME280;10038;42.662;23.278;2022-09-09T11:34:57;73846.44;;;28.23;50.10
19759;BME280;10038;42.662;23.278;2022-09-09T11:37:43;73932.56;;;28.97;50.50
19759;BME280;10038;42.662;23.278;2022-09-09T11:40:18;73946.59;;;29.09;51.23
19759;BME280;10038;42.662;23.278;2022-09-09T11:42:46;73922.72;;;28.91;51.11
19759;BME280;10038;42.662;23.278;2022-09-09T11:45:23;73892.84;;;28.65;49.24
19759;BME280;10038;42.662;23.278;2022-09-09T11:47:53;73837.09;;;28.15;51.03
19759;BME280;10038;42.662;23.278;2022-09-09T11:50:31;73812.59;;;27.96;51.36
19759;BME280;10038;42.662;23.278;2022-09-09T11:53:16;73818.47;;;28.01;50.94
19759;BME280;10038;42.662;23.278;2022-09-09T11:55:46;73879.81;;;28.52;49.95
19759;BME280;10038;42.662;23.278;2022-09-09T11:58:17;73912.16;;;28.82;48.10
19759;BME280;10038;42.662;23.278;2022-09-09T12:00:46;74042.28;;;29.94;45.99
19759;BME280;10038;42.662;23.278;2022-09-09T12:03:39;74195.94;;;31.26;43.22
19759;BME280;10038;42.662;23.278;2022-09-09T12:06:13;74282.81;;;32.01;41.50
19759;BME280;10038;42.662;23.278;2022-09-09T12:08:43;74382.75;;;32.89;39.66
19759;BME280;10038;42.662;23.278;2022-09-09T12:11:11;74369.22;;;32.78;39.76
19759;BME280;10038;42.662;23.278;2022-09-09T12:13:38;74437.38;;;33.36;38.77
19759;BME280;10038;42.662;23.278;2022-09-09T12:16:28;74458.50;;;33.54;38.32
19759;BME280;10038;42.662;23.278;2022-09-09T12:19:04;74347.97;;;32.57;39.95
19759;BME280;10038;42.662;23.278;2022-09-09T12:21:35;74397.44;;;33.02;38.66
19759;BME280;10038;42.662;23.278;2022-09-09T12:24:07;74507.28;;;33.96;37.10
19759;BME280;10038;42.662;23.278;2022-09-09T12:26:39;74612.63;;;34.89;35.23
19759;BME280;10038;42.662;23.278;2022-09-09T12:29:18;74443.25;;;33.41;37.52
19759;BME280;10038;42.662;23.278;2022-09-09T12:31:55;74405.06;;;33.08;37.46
19759;BME280;10038;42.662;23.278;2022-09-09T12:34:32;74337.50;;;32.50;38.74
19759;BME280;10038;42.662;23.278;2022-09-09T12:37:06;74220.59;;;31.47;40.76
19759;BME280;10038;42.662;23.278;2022-09-09T12:39:40;74047.44;;;29.96;43.51
19759;BME280;10038;42.662;23.278;2022-09-09T12:42:16;73991.13;;;29.48;45.54
19759;BME280;10038;42.662;23.278;2022-09-09T12:44:54;73977.09;;;29.36;46.19
19759;BME280;10038;42.662;23.278;2022-09-09T12:47:25;73941.91;;;29.05;46.84
19759;BME280;10038;42.662;23.278;2022-09-09T12:49:54;73982.94;;;29.41;46.37
19759;BME280;10038;42.662;23.278;2022-09-09T12:52:27;73960.81;;;29.24;46.43
19759;BME280;10038;42.662;23.278;2022-09-09T12:54:57;74038.66;;;29.89;45.49
19759;BME280;10038;42.662;23.278;2022-09-09T12:57:33;74128.94;;;30.66;43.85
19759;BME280;10038;42.662;23.278;2022-09-09T13:00:07;74139.16;;;30.80;43.74
19759;BME280;10038;42.662;23.278;2022-09-09T13:02:46;74089.03;;;30.32;44.29
19759;BME280;10038;42.662;23.278;2022-09-09T13:05:15;74035.44;;;29.81;44.88
19759;BME280;10038;42.662;23.278;2022-09-09T13:07:44;74034.06;;;29.87;45.34
19759;BME280;10038;42.662;23.278;2022-09-09T13:10:14;74019.41;;;29.74;45.70
19759;BME280;10038;42.662;23.278;2022-09-09T13:12:42;74066.19;;;30.12;46.51
19759;BME280;10038;42.662;23.278;2022-09-09T13:15:19;74099.75;;;30.44;45.68
19759;BME280;10038;42.662;23.278;2022-09-09T13:17:53;74001.69;;;29.57;45.69